Aérodrome :
LOGIN :

S'inscrire | Disclaimer

   EN    FR    IT 

 










Légende :    VFR   VFR Marginal   IFR   IFR Intensif   IFR Très Intensif
Visi : 
Plafond : 
>= 8 km
>= 3000ft
5 à 8 km
1000 à 3000 ft
1500m à 5 km
500 à 1000 ft
800 à 1500m
200 à 500 ft
< 800m
< 200 ft
Symboles :   Orages  Brouillard  Fortes neiges  Fortes précipitations  Vent > 20 kt
SIGMETs :   Divers  Orages  Givrage  Turbulence  Onde Orograph.  Cendres Volcan.







- Altitude de l'aérodrome : 102 ft
- Code IATA : CNG
- Voir les cartes d'approche


LFBG - Cognac

DERNIER METAR :
  • 190430Z AUTO VRB02KT 0600 R23/0800U FG VV/// 08/08 Q1021

METARs EXPIRÉS :
  • 190400Z AUTO 05003KT 0600 0400 R23/0500N FG VV/// 09/08 Q1021
  • 190330Z AUTO 04002KT 0900 0600 R23/0700D FG VV/// 09/08 Q1021
  • 190300Z AUTO 31002KT 1800 BR OVC002 09/08 Q1021
  • 190230Z AUTO 31002KT 1100 1000 R23/1000U BR OVC003 09/08 Q1021
  • 190200Z AUTO 00000KT 2000 1200 R23/1600U BR OVC004 08/08 Q1021

TAF TAF LFBG
Valide du 18 à 15h jusqu'au 19 à 15h UTC


181400Z 1815/1915 20012KT CAVOK
BECMG 1820/1822 BKN005 BKN030
TEMPO 1900/1906 5000 -RADZ
BECMG 1910/1912 BKN025
Pas de NOTAMs connus pour ce terrain.



MET'MAP, la Météo Aéronautique d'un coup d'oeil ! - Copyright ORBIFLY Décembre 2007 - Disclaimer

ORBIFLY MET'MAP TEAM :

Programmation & Développement : Alexandra Zaïnal
Conception & Développement : Baudouin d'Aumeries
Co-Programmation & Développement : Marc-Olivier Méhu
Soutien technique & logistique : Manuel Goepfert

Contact : metmap@orbifly.com




SOURCES & CREDITS :

   NOAA